Time;durP1;ratioP1;P1;durP2;ratioP2;P2;SDS_P1;SDS_P2;PMS_P1;PMS_P2;Temp;Humidity;BMP_temperature;BMP_pressure;BME280_temperature;BME280_humidity;BME280_pressure;Samples;Min_cycle;Max_cycle;Signal;HPM_P1;HPM_P2
2022/09/03 00:02:17;;;;;;;5.32;2.10;;;21.90;52.30;;;;;;5092647;28;20162;-62
2022/09/03 00:04:45;;;;;;;2.63;1.75;;;21.80;52.00;;;;;;5097849;28;20652;-62
2022/09/03 00:07:42;;;;;;;5.13;1.88;;;21.80;52.20;;;;;;5093882;28;20186;-63
2022/09/03 00:10:13;;;;;;;4.38;1.85;;;21.80;52.20;;;;;;5098174;28;20544;-63
2022/09/03 00:12:44;;;;;;;6.90;1.90;;;21.70;52.30;;;;;;5076254;28;20186;-63
2022/09/03 00:15:17;;;;;;;4.50;1.83;;;21.70;52.50;;;;;;5093313;28;20268;-62
2022/09/03 00:17:57;;;;;;;7.95;2.70;;;21.70;52.60;;;;;;5094271;28;20578;-62
2022/09/03 00:20:32;;;;;;;6.45;2.42;;;21.60;52.70;;;;;;5082213;28;20640;-62
2022/09/03 00:23:02;;;;;;;7.28;2.17;;;21.60;52.80;;;;;;5114406;28;20168;-63
2022/09/03 00:25:37;;;;;;;7.07;2.30;;;21.60;53.00;;;;;;5093182;28;20224;-63
2022/09/03 00:28:11;;;;;;;9.10;2.00;;;21.50;53.30;;;;;;5098322;28;20658;-63
2022/09/03 00:30:39;;;;;;;4.50;2.20;;;21.50;53.30;;;;;;5103689;28;20174;-63
2022/09/03 00:33:17;;;;;;;4.90;2.33;;;21.40;53.50;;;;;;5093228;28;20195;-62
2022/09/03 00:36:03;;;;;;;4.03;2.25;;;21.40;53.70;;;;;;5093729;28;20504;-62
2022/09/03 00:38:29;;;;;;;6.18;2.08;;;21.40;53.90;;;;;;5097972;28;20184;-63
2022/09/03 00:41:25;;;;;;;6.35;2.10;;;21.30;54.10;;;;;;5100710;28;20178;-62
2022/09/03 00:44:03;;;;;;;4.32;2.00;;;21.20;54.30;;;;;;5074492;28;20185;-62
2022/09/03 00:46:47;;;;;;;6.57;2.28;;;21.20;54.50;;;;;;5088594;28;20198;-63
2022/09/03 00:49:19;;;;;;;5.03;2.03;;;21.10;54.70;;;;;;5110900;28;20169;-63
2022/09/03 00:52:08;;;;;;;7.40;1.90;;;21.10;54.80;;;;;;5094318;28;20182;-62
2022/09/03 00:54:56;;;;;;;4.20;2.25;;;21.10;55.00;;;;;;5094510;28;20233;-62
2022/09/03 00:57:36;;;;;;;7.35;2.22;;;21.00;55.20;;;;;;5105466;28;20185;-62
2022/09/03 01:00:10;;;;;;;2.17;1.70;;;21.00;55.30;;;;;;5089304;28;20590;-62
2022/09/03 01:03:00;;;;;;;6.07;2.17;;;20.90;55.40;;;;;;5093785;28;20606;-62
2022/09/03 01:06:18;;;;;;;4.55;1.98;;;20.90;55.60;;;;;;5076077;28;20228;-62
2022/09/03 01:08:53;;;;;;;4.80;2.35;;;20.90;55.80;;;;;;5017871;28;20211;-62
2022/09/03 01:11:22;;;;;;;4.95;1.83;;;20.80;55.90;;;;;;5021778;28;20195;-62
2022/09/03 01:14:10;;;;;;;7.20;2.22;;;20.80;56.10;;;;;;5065134;28;20189;-62
2022/09/03 01:16:52;;;;;;;7.00;5.07;;;20.70;56.20;;;;;;5080146;28;20193;-62
2022/09/03 01:19:24;;;;;;;11.38;2.03;;;20.70;56.30;;;;;;5078336;28;20181;-62
2022/09/03 01:22:24;;;;;;;3.08;2.00;;;20.70;56.40;;;;;;5093941;28;20190;-62
2022/09/03 01:25:06;;;;;;;3.92;2.00;;;20.60;56.60;;;;;;5094191;28;20185;-62
2022/09/03 01:27:47;;;;;;;2.78;1.88;;;20.60;56.80;;;;;;5102975;28;20192;-62
2022/09/03 01:30:19;;;;;;;7.68;5.50;;;20.50;56.90;;;;;;5079697;28;20204;-63
2022/09/03 01:33:03;;;;;;;6.97;2.03;;;20.50;57.00;;;;;;5112024;28;20268;-62
2022/09/03 01:35:49;;;;;;;4.10;2.25;;;20.40;57.10;;;;;;5106843;28;20237;-61
2022/09/03 01:38:47;;;;;;;6.22;1.80;;;20.40;57.20;;;;;;5097174;28;20251;-60
2022/09/03 01:44:53;;;;;;;5.90;2.05;;;20.30;57.40;;;;;;5114151;28;20173;-61
2022/09/03 01:47:48;;;;;;;4.47;2.38;;;20.30;57.50;;;;;;5093000;28;20205;-61
2022/09/03 01:50:18;;;;;;;3.83;2.22;;;20.30;57.60;;;;;;5084023;28;20219;-61
2022/09/03 01:52:59;;;;;;;6.15;2.42;;;20.20;57.70;;;;;;5117595;28;20269;-61
2022/09/03 01:55:32;;;;;;;6.35;2.28;;;20.20;57.90;;;;;;5110750;28;20717;-62
2022/09/03 01:58:05;;;;;;;6.68;2.13;;;20.20;58.00;;;;;;5101964;28;20188;-61
2022/09/03 02:00:33;;;;;;;5.53;2.33;;;20.20;58.20;;;;;;5106617;28;20256;-61
2022/09/03 02:03:05;;;;;;;5.07;2.22;;;20.10;58.30;;;;;;5108172;28;20173;-61
2022/09/03 02:05:32;;;;;;;4.10;2.38;;;20.10;58.40;;;;;;5082059;28;20610;-61
2022/09/03 02:08:09;;;;;;;9.05;2.20;;;20.00;58.60;;;;;;5099849;28;20206;-61
2022/09/03 02:10:44;;;;;;;6.20;2.50;;;20.00;58.80;;;;;;5096613;28;20265;-61
2022/09/03 02:13:15;;;;;;;4.72;1.92;;;20.00;58.90;;;;;;5096804;28;20205;-60
2022/09/03 02:15:44;;;;;;;3.30;2.22;;;20.00;59.00;;;;;;5100180;28;20238;-61
2022/09/03 02:18:16;;;;;;;5.85;2.00;;;20.00;59.20;;;;;;5097044;28;20263;-62
2022/09/03 02:20:43;;;;;;;2.85;1.92;;;19.90;59.30;;;;;;5100207;28;20678;-60
2022/09/03 02:23:09;;;;;;;5.78;2.05;;;20.00;59.40;;;;;;5096672;28;20166;-62
2022/09/03 02:25:38;;;;;;;4.78;2.30;;;19.90;59.30;;;;;;5096454;28;20645;-62
2022/09/03 02:28:06;;;;;;;7.60;1.98;;;19.90;59.50;;;;;;5107009;28;20178;-60
2022/09/03 02:30:32;;;;;;;3.53;1.90;;;19.90;59.50;;;;;;5105712;28;20217;-62
2022/09/03 02:32:59;;;;;;;7.93;1.92;;;19.90;59.70;;;;;;5078162;28;20571;-62
2022/09/03 02:35:25;;;;;;;4.38;2.00;;;19.80;59.70;;;;;;5096733;28;20182;-62
2022/09/03 02:37:51;;;;;;;3.25;2.00;;;19.80;59.90;;;;;;5095590;28;20230;-60
2022/09/03 02:40:16;;;;;;;10.90;2.00;;;19.80;60.00;;;;;;5083851;28;20590;-60
2022/09/03 02:42:45;;;;;;;4.38;2.15;;;19.70;60.20;;;;;;5115991;28;20533;-60
2022/09/03 02:45:26;;;;;;;4.07;2.00;;;19.70;60.50;;;;;;5109557;28;20221;-60
2022/09/03 02:47:56;;;;;;;4.43;2.15;;;19.60;60.60;;;;;;5096744;27;20187;-60
2022/09/03 02:50:23;;;;;;;4.93;1.90;;;19.60;60.80;;;;;;5083199;28;20186;-60
2022/09/03 02:52:49;;;;;;;6.22;2.60;;;19.60;61.00;;;;;;5097773;28;20227;-60
2022/09/03 02:55:15;;;;;;;8.60;2.33;;;19.60;61.10;;;;;;5091783;28;20222;-61
2022/09/03 02:57:41;;;;;;;5.07;2.20;;;19.60;61.20;;;;;;5097598;28;20266;-61
2022/09/03 03:00:08;;;;;;;7.28;2.15;;;19.60;61.20;;;;;;5097277;27;20177;-61
2022/09/03 03:02:34;;;;;;;3.50;1.98;;;19.60;61.30;;;;;;5096027;28;20252;-61
2022/09/03 03:05:00;;;;;;;8.35;2.22;;;19.60;61.30;;;;;;5095882;28;20181;-61
2022/09/03 03:07:30;;;;;;;4.28;1.95;;;19.50;61.20;;;;;;5093475;28;20188;-60
2022/09/03 03:09:57;;;;;;;3.15;1.85;;;19.60;61.30;;;;;;5099519;28;20207;-60
2022/09/03 03:12:24;;;;;;;3.90;2.00;;;19.50;61.30;;;;;;5107068;28;20201;-61
2022/09/03 03:14:49;;;;;;;4.18;2.33;;;19.50;61.30;;;;;;5093527;28;20192;-60
2022/09/03 03:17:15;;;;;;;5.10;2.10;;;19.50;61.40;;;;;;5095353;28;20174;-60
2022/09/03 03:19:41;;;;;;;8.30;2.20;;;19.50;61.50;;;;;;5099921;28;21991;-63
2022/09/03 03:22:06;;;;;;;7.32;2.33;;;19.40;61.70;;;;;;5096126;28;20196;-61
2022/09/03 03:24:32;;;;;;;4.97;2.05;;;19.40;61.90;;;;;;5104632;28;20209;-63
2022/09/03 03:26:58;;;;;;;3.90;2.13;;;19.40;62.10;;;;;;5104841;28;20222;-63
2022/09/03 03:29:24;;;;;;;4.43;2.15;;;19.40;62.20;;;;;;5098282;28;20182;-63
2022/09/03 03:31:50;;;;;;;2.22;1.98;;;19.30;62.20;;;;;;5099393;27;20208;-63
2022/09/03 03:34:16;;;;;;;4.35;2.45;;;19.30;62.40;;;;;;5099026;28;20196;-63
2022/09/03 03:36:42;;;;;;;6.70;2.47;;;19.30;62.60;;;;;;5101316;28;20186;-63
2022/09/03 03:39:08;;;;;;;5.30;2.17;;;19.30;62.70;;;;;;5098094;28;20210;-63
2022/09/03 03:41:35;;;;;;;4.10;1.95;;;19.30;62.90;;;;;;5092316;28;20185;-63
2022/09/03 03:44:03;;;;;;;6.03;2.40;;;19.20;63.00;;;;;;5112917;28;20616;-63
2022/09/03 03:46:37;;;;;;;8.35;5.63;;;19.20;63.20;;;;;;5099347;28;20237;-63
2022/09/03 03:49:05;;;;;;;6.22;5.63;;;19.20;63.40;;;;;;5077544;28;20178;-61
2022/09/03 03:51:31;;;;;;;4.90;3.55;;;19.10;63.60;;;;;;5109775;28;20177;-61
2022/09/03 03:53:58;;;;;;;8.10;5.55;;;19.10;63.70;;;;;;5116561;28;20189;-61
2022/09/03 03:56:25;;;;;;;3.63;2.17;;;19.10;63.90;;;;;;5084512;28;20181;-61
2022/09/03 03:58:52;;;;;;;3.22;2.40;;;19.10;64.00;;;;;;5092753;28;20193;-61
2022/09/03 04:01:23;;;;;;;4.82;2.28;;;19.10;64.00;;;;;;5099583;28;20230;-63
2022/09/03 04:03:50;;;;;;;4.53;2.10;;;19.10;64.10;;;;;;5109916;28;20188;-61
2022/09/03 04:06:18;;;;;;;7.38;2.50;;;19.10;64.20;;;;;;5101872;28;20225;-61
2022/09/03 04:08:46;;;;;;;6.53;2.63;;;19.10;64.40;;;;;;5094184;28;20192;-62
2022/09/03 04:11:15;;;;;;;6.75;4.20;;;19.00;64.40;;;;;;5107432;28;20181;-61
2022/09/03 04:13:42;;;;;;;9.30;4.57;;;19.00;64.50;;;;;;5095355;28;20182;-60
2022/09/03 04:16:11;;;;;;;10.27;2.42;;;19.00;64.60;;;;;;5106244;28;20179;-61
2022/09/03 04:18:37;;;;;;;5.28;2.03;;;19.00;64.90;;;;;;5115455;28;20180;-61
2022/09/03 04:21:06;;;;;;;8.55;2.00;;;19.00;65.10;;;;;;5108989;28;20568;-63
2022/09/03 04:23:37;;;;;;;7.45;2.33;;;18.90;65.00;;;;;;5115040;28;20179;-63
2022/09/03 04:26:04;;;;;;;4.50;2.20;;;18.90;65.10;;;;;;5082024;28;20233;-61
2022/09/03 04:28:29;;;;;;;5.30;2.10;;;19.00;66.00;;;;;;5072629;28;20181;-61
2022/09/03 04:31:03;;;;;;;6.47;2.13;;;18.90;65.20;;;;;;5077963;28;20182;-62
2022/09/03 04:33:30;;;;;;;5.38;2.55;;;18.90;65.30;;;;;;5077872;28;20173;-61
2022/09/03 04:36:04;;;;;;;11.18;2.50;;;18.90;65.40;;;;;;5107883;28;20182;-62
2022/09/03 04:38:31;;;;;;;4.82;2.30;;;18.90;65.40;;;;;;5095053;28;20634;-62
2022/09/03 04:40:58;;;;;;;4.05;2.10;;;18.90;65.60;;;;;;5084453;28;20186;-61
2022/09/03 04:43:24;;;;;;;5.53;2.20;;;18.80;65.60;;;;;;5095104;28;20231;-61
2022/09/03 04:45:50;;;;;;;4.95;1.80;;;18.80;65.90;;;;;;5109182;28;20256;-61
2022/09/03 04:48:16;;;;;;;2.50;1.95;;;18.80;66.00;;;;;;5076292;28;20218;-61
2022/09/03 04:50:41;;;;;;;6.78;2.10;;;18.70;66.10;;;;;;5084316;28;20184;-61
2022/09/03 04:53:07;;;;;;;3.65;2.00;;;18.70;66.40;;;;;;5094476;28;20177;-61
2022/09/03 04:55:34;;;;;;;3.88;2.08;;;18.70;66.50;;;;;;5093025;28;20706;-61
2022/09/03 04:58:00;;;;;;;6.68;2.17;;;18.70;66.70;;;;;;5077239;28;20257;-61
2022/09/03 05:00:26;;;;;;;2.83;1.98;;;18.60;66.90;;;;;;5097856;28;20288;-64
2022/09/03 05:02:51;;;;;;;4.90;2.40;;;18.60;67.10;;;;;;5113172;28;20197;-61
2022/09/03 05:05:17;;;;;;;5.22;2.40;;;18.60;67.30;;;;;;5113126;28;20204;-61
2022/09/03 05:07:43;;;;;;;5.90;2.33;;;18.60;67.50;;;;;;5094664;28;20178;-60
2022/09/03 05:10:14;;;;;;;7.47;2.13;;;18.50;67.80;;;;;;5093429;28;20181;-60
2022/09/03 05:12:41;;;;;;;5.15;2.00;;;18.50;67.90;;;;;;5108591;28;20184;-61
2022/09/03 05:15:07;;;;;;;3.10;1.92;;;18.50;68.30;;;;;;5095539;28;20210;-60
2022/09/03 05:17:33;;;;;;;3.55;1.98;;;18.50;68.50;;;;;;5107362;28;20226;-61
2022/09/03 05:19:59;;;;;;;5.35;2.50;;;18.50;68.70;;;;;;5106898;28;20257;-61
2022/09/03 05:22:24;;;;;;;4.88;2.65;;;18.40;68.90;;;;;;5108703;28;20185;-61
2022/09/03 05:24:50;;;;;;;5.15;1.98;;;18.40;69.00;;;;;;5094368;28;20186;-61
2022/09/03 05:27:16;;;;;;;10.75;5.57;;;18.40;69.20;;;;;;5092384;28;20678;-62
2022/09/03 05:29:43;;;;;;;8.43;2.47;;;18.40;69.40;;;;;;5114038;28;20209;-63
2022/09/03 05:32:09;;;;;;;5.18;2.35;;;18.40;69.60;;;;;;5081521;28;20196;-62
2022/09/03 05:34:34;;;;;;;5.20;1.92;;;18.40;69.80;;;;;;5097514;28;20268;-61
2022/09/03 05:37:00;;;;;;;8.35;2.40;;;18.40;70.00;;;;;;5101214;28;20276;-62
2022/09/03 05:39:26;;;;;;;4.60;2.00;;;18.40;70.20;;;;;;5113120;28;20181;-61
2022/09/03 05:41:52;;;;;;;7.90;2.25;;;18.40;70.50;;;;;;5100656;28;20243;-61
2022/09/03 05:44:20;;;;;;;6.03;2.28;;;18.40;70.70;;;;;;5093747;28;20184;-60
2022/09/03 05:46:46;;;;;;;4.43;1.88;;;18.40;70.90;;;;;;5093800;28;20677;-60
2022/09/03 05:49:11;;;;;;;7.85;1.98;;;18.40;71.10;;;;;;5109205;28;20253;-63
2022/09/03 05:51:41;;;;;;;7.03;2.67;;;18.40;71.30;;;;;;5101956;28;20579;-61
2022/09/03 05:54:08;;;;;;;6.60;2.35;;;18.40;71.40;;;;;;5086402;28;20247;-63
2022/09/03 05:56:35;;;;;;;4.03;2.60;;;18.50;71.60;;;;;;5101019;28;20220;-59
2022/09/03 05:59:06;;;;;;;4.90;2.28;;;18.40;71.80;;;;;;5090687;28;20186;-59
2022/09/03 06:01:35;;;;;;;4.13;2.13;;;18.50;72.10;;;;;;5088389;28;20261;-60
2022/09/03 06:04:09;;;;;;;6.20;2.00;;;18.40;72.10;;;;;;5093722;28;20182;-63
2022/09/03 06:06:38;;;;;;;4.47;1.88;;;18.40;72.10;;;;;;5092902;28;20201;-58
2022/09/03 06:09:07;;;;;;;3.92;2.17;;;18.50;72.40;;;;;;5091984;28;20200;-61
2022/09/03 06:11:35;;;;;;;6.55;2.33;;;18.50;72.40;;;;;;5076590;28;22188;-61
2022/09/03 06:14:06;;;;;;;4.97;2.03;;;18.50;72.50;;;;;;5091728;28;20272;-61
2022/09/03 06:16:37;;;;;;;11.98;2.40;;;18.50;72.50;;;;;;5093567;28;20181;-62
2022/09/03 06:19:08;;;;;;;5.60;1.90;;;18.50;72.70;;;;;;5092763;28;20170;-60
2022/09/03 06:21:41;;;;;;;6.40;1.85;;;18.50;72.70;;;;;;5080198;28;20197;-61
2022/09/03 06:24:16;;;;;;;3.45;1.92;;;18.50;72.70;;;;;;5092100;28;20178;-61
2022/09/03 06:26:42;;;;;;;7.18;2.00;;;18.60;72.70;;;;;;5092737;28;20274;-61
2022/09/03 06:29:07;;;;;;;6.50;1.98;;;18.60;72.70;;;;;;5094646;28;20246;-62
2022/09/03 06:31:34;;;;;;;6.70;2.10;;;18.70;72.80;;;;;;5103881;28;20632;-60
2022/09/03 06:34:00;;;;;;;3.08;2.03;;;18.70;72.60;;;;;;5115500;28;20276;-61
2022/09/03 06:36:27;;;;;;;4.57;2.15;;;18.70;72.70;;;;;;5088786;28;20221;-60
2022/09/03 06:38:54;;;;;;;7.30;2.15;;;18.70;72.70;;;;;;5097558;28;20230;-61
2022/09/03 06:41:25;;;;;;;6.35;2.22;;;18.80;72.60;;;;;;5111459;28;20180;-61
2022/09/03 06:43:53;;;;;;;5.75;2.10;;;18.80;72.50;;;;;;5095775;28;20264;-61
2022/09/03 06:46:21;;;;;;;4.97;1.92;;;18.90;72.50;;;;;;5081537;28;20197;-61
2022/09/03 06:48:47;;;;;;;6.38;2.00;;;18.90;72.70;;;;;;5079663;28;20193;-62
2022/09/03 06:51:16;;;;;;;7.18;2.10;;;19.00;72.60;;;;;;5095449;28;20239;-61
2022/09/03 06:53:44;;;;;;;5.90;3.05;;;19.00;72.40;;;;;;5097226;28;20173;-61
2022/09/03 06:56:13;;;;;;;7.85;4.13;;;19.00;72.10;;;;;;5095974;28;20197;-62
2022/09/03 06:58:48;;;;;;;2.45;1.60;;;19.10;72.10;;;;;;5101635;28;20643;-62
2022/09/03 07:01:39;;;;;;;5.90;1.80;;;19.10;71.90;;;;;;5105267;28;20199;-61
2022/09/03 07:04:06;;;;;;;4.47;1.80;;;19.10;71.60;;;;;;5096595;27;20189;-62
2022/09/03 07:06:43;;;;;;;6.35;2.00;;;19.20;71.60;;;;;;5085602;28;20229;-62
2022/09/03 07:09:10;;;;;;;4.05;1.90;;;19.20;71.70;;;;;;5091903;28;20280;-62
2022/09/03 07:11:39;;;;;;;5.25;1.90;;;19.30;71.50;;;;;;5103140;28;20182;-62
2022/09/03 07:14:04;;;;;;;5.35;1.80;;;19.30;71.40;;;;;;5098852;27;20592;-62
2022/09/03 07:16:35;;;;;;;8.95;2.38;;;19.30;71.30;;;;;;5101514;28;20254;-62
2022/09/03 07:19:03;;;;;;;3.13;1.70;;;19.40;71.30;;;;;;5097229;27;20209;-62
2022/09/03 07:21:30;;;;;;;5.60;1.92;;;19.40;71.20;;;;;;5095525;28;20178;-62
2022/09/03 07:23:56;;;;;;;7.10;1.70;;;19.40;71.20;;;;;;5105498;28;20204;-62
2022/09/03 07:26:26;;;;;;;4.85;1.77;;;19.40;71.00;;;;;;5085635;28;20229;-62
2022/09/03 07:28:53;;;;;;;5.07;2.25;;;19.40;70.70;;;;;;5108835;28;20188;-62
2022/09/03 07:31:24;;;;;;;5.63;1.85;;;19.50;70.70;;;;;;5111849;28;20268;-61
2022/09/03 07:33:57;;;;;;;2.97;1.67;;;19.60;70.60;;;;;;5110882;28;20178;-62
2022/09/03 07:36:25;;;;;;;7.38;2.20;;;19.60;70.60;;;;;;5097086;28;20214;-63
2022/09/03 07:38:55;;;;;;;5.47;1.88;;;19.60;70.60;;;;;;5114379;28;20181;-62
2022/09/03 07:41:21;;;;;;;5.93;1.83;;;19.70;70.60;;;;;;5085221;28;20190;-62
2022/09/03 07:43:48;;;;;;;5.85;1.90;;;19.70;70.40;;;;;;5093745;28;20637;-62
2022/09/03 07:46:25;;;;;;;3.13;2.10;;;19.80;70.00;;;;;;5095916;28;20684;-62
2022/09/03 07:48:56;;;;;;;3.97;2.05;;;19.90;69.70;;;;;;5103975;28;20539;-61
2022/09/03 07:51:25;;;;;;;5.88;2.20;;;19.90;69.30;;;;;;5102226;28;20189;-63
2022/09/03 07:53:54;;;;;;;11.30;2.40;;;19.90;69.30;;;;;;5115068;28;20188;-61
2022/09/03 07:56:20;;;;;;;5.40;1.95;;;20.00;69.20;;;;;;5095927;28;20238;-60
2022/09/03 07:58:46;;;;;;;5.53;2.08;;;20.00;70.10;;;;;;5111937;28;20198;-59
2022/09/03 08:01:23;;;;;;;7.45;2.05;;;20.10;70.60;;;;;;5081591;28;20243;-62
2022/09/03 08:03:51;;;;;;;6.97;1.73;;;20.10;70.90;;;;;;5094856;28;20200;-63
2022/09/03 08:06:19;;;;;;;5.40;1.88;;;20.20;70.70;;;;;;5094510;28;20260;-61
2022/09/03 08:08:45;;;;;;;7.32;1.92;;;20.30;70.40;;;;;;5087337;28;20323;-62
2022/09/03 08:11:12;;;;;;;12.18;2.00;;;20.30;69.70;;;;;;5104953;28;20251;-62
2022/09/03 08:13:45;;;;;;;2.95;1.90;;;20.40;69.30;;;;;;5111738;28;20181;-60
2022/09/03 08:16:12;;;;;;;5.05;1.80;;;20.40;68.90;;;;;;5110378;28;20178;-60
2022/09/03 08:18:38;;;;;;;3.78;2.20;;;20.50;68.80;;;;;;5098351;28;20202;-59
2022/09/03 08:21:15;;;;;;;9.27;1.88;;;20.50;68.50;;;;;;5106514;28;20186;-63
2022/09/03 08:23:43;;;;;;;8.23;1.90;;;20.60;68.40;;;;;;5076050;28;20189;-64
2022/09/03 08:26:09;;;;;;;3.70;1.77;;;20.60;68.10;;;;;;5105488;28;20214;-60
2022/09/03 08:28:36;;;;;;;4.13;2.10;;;20.70;68.10;;;;;;5082403;28;20185;-62
2022/09/03 08:31:12;;;;;;;6.57;1.95;;;20.80;68.10;;;;;;5088013;28;20181;-60
2022/09/03 08:33:41;;;;;;;4.90;1.70;;;20.80;68.00;;;;;;5093939;28;20174;-63
2022/09/03 08:36:29;;;;;;;8.65;2.10;;;20.80;67.60;;;;;;5093595;28;20182;-60
2022/09/03 08:38:58;;;;;;;3.08;2.03;;;20.90;67.50;;;;;;5095154;27;20182;-61
2022/09/03 08:41:47;;;;;;;5.30;2.10;;;20.90;67.70;;;;;;5102507;28;20203;-59
2022/09/03 08:44:16;;;;;;;4.90;1.90;;;21.00;67.80;;;;;;5092856;28;20235;-57
2022/09/03 08:46:54;;;;;;;4.88;1.85;;;21.10;67.70;;;;;;5105651;28;20665;-58
2022/09/03 08:49:48;;;;;;;7.20;2.13;;;21.10;67.60;;;;;;5096778;28;20201;-58
2022/09/03 08:52:49;;;;;;;4.38;1.77;;;21.20;67.10;;;;;;5091014;28;20185;-60
2022/09/03 08:55:30;;;;;;;7.18;2.03;;;21.30;67.10;;;;;;5075043;28;20312;-59
2022/09/03 08:58:15;;;;;;;8.07;2.00;;;21.50;67.00;;;;;;5093129;28;20622;-60
2022/09/03 09:01:00;;;;;;;4.75;2.08;;;21.50;66.60;;;;;;5093590;28;20205;-59
2022/09/03 09:03:29;;;;;;;3.83;1.77;;;21.60;66.30;;;;;;5095616;28;20173;-60
2022/09/03 09:06:21;;;;;;;9.88;6.30;;;21.70;65.70;;;;;;5090436;28;20209;-60
2022/09/03 09:09:08;;;;;;;8.57;3.08;;;21.80;65.50;;;;;;5080554;28;20185;-62
2022/09/03 09:11:37;;;;;;;8.57;2.47;;;21.90;65.20;;;;;;5100399;28;20261;-59
2022/09/03 09:14:16;;;;;;;7.10;2.17;;;22.00;65.00;;;;;;5111966;28;20280;-60
2022/09/03 09:16:53;;;;;;;7.32;2.22;;;22.10;65.00;;;;;;5092938;28;20198;-60
2022/09/03 09:19:47;;;;;;;14.52;2.10;;;22.10;64.00;;;;;;5093706;28;20180;-60
2022/09/03 09:22:40;;;;;;;6.40;2.03;;;22.20;63.80;;;;;;5090295;28;20181;-59
2022/09/03 09:25:15;;;;;;;8.27;2.33;;;22.30;63.60;;;;;;5081123;28;20265;-61
2022/09/03 09:27:59;;;;;;;4.13;1.98;;;22.40;63.60;;;;;;5104926;28;20191;-60
2022/09/03 09:30:26;;;;;;;5.88;1.85;;;22.50;63.20;;;;;;5108676;28;20433;-60
2022/09/03 09:32:52;;;;;;;9.77;1.80;;;22.60;62.30;;;;;;5066330;28;20231;-60
2022/09/03 09:35:18;;;;;;;9.20;2.10;;;22.70;61.70;;;;;;5075101;28;20177;-61
2022/09/03 09:37:52;;;;;;;3.22;1.92;;;22.80;61.30;;;;;;5070050;28;20183;-61
2022/09/03 09:40:31;;;;;;;6.55;2.05;;;22.90;61.10;;;;;;5093599;28;20212;-62
2022/09/03 09:43:12;;;;;;;5.53;2.28;;;22.90;60.60;;;;;;5101430;28;20177;-61
2022/09/03 09:45:40;;;;;;;25.90;3.35;;;23.00;60.40;;;;;;5108306;28;20201;-61
2022/09/03 09:48:19;;;;;;;7.82;2.40;;;23.10;60.20;;;;;;5091354;28;20189;-61
2022/09/03 09:50:44;;;;;;;38.55;4.10;;;23.20;60.10;;;;;;5097277;28;20185;-60
2022/09/03 09:53:14;;;;;;;27.80;3.28;;;23.30;59.90;;;;;;5093101;28;20660;-60
2022/09/03 09:55:56;;;;;;;11.20;2.00;;;23.40;59.60;;;;;;5093390;28;20229;-60
2022/09/03 09:58:27;;;;;;;6.15;1.90;;;23.60;59.40;;;;;;5093396;28;20201;-62
2022/09/03 10:01:12;;;;;;;8.57;1.98;;;23.70;59.40;;;;;;5092546;28;20173;-60
2022/09/03 10:03:54;;;;;;;3.15;1.98;;;23.70;59.30;;;;;;5101266;28;20216;-60
2022/09/03 10:09:19;;;;;;;6.53;2.03;;;23.90;58.90;;;;;;5096417;28;20260;-61
2022/09/03 10:11:56;;;;;;;18.67;2.00;;;24.00;58.70;;;;;;5096712;27;20270;-63
2022/09/03 10:14:32;;;;;;;21.10;2.70;;;24.10;58.10;;;;;;5108050;28;20240;-60
2022/09/03 10:17:09;;;;;;;5.97;2.17;;;24.30;57.60;;;;;;5083286;28;20258;-61
2022/09/03 10:22:51;;;;;;;9.32;1.60;;;24.50;57.10;;;;;;5106292;28;20199;-60
2022/09/03 10:25:19;;;;;;;4.93;1.80;;;24.60;56.80;;;;;;5115123;28;20166;-60
2022/09/03 10:27:45;;;;;;;4.65;1.90;;;24.70;56.30;;;;;;5095986;28;20659;-61
2022/09/03 10:30:15;;;;;;;4.50;1.92;;;24.80;56.00;;;;;;5114453;28;20285;-61
2022/09/03 10:33:11;;;;;;;6.75;2.35;;;24.90;55.30;;;;;;5107954;28;20666;-60
2022/09/03 10:35:51;;;;;;;4.00;1.55;;;24.90;54.90;;;;;;5102574;27;20193;-60
2022/09/03 10:38:30;;;;;;;6.25;1.60;;;25.00;54.60;;;;;;5096367;28;20266;-60
2022/09/03 10:41:18;;;;;;;6.35;1.85;;;25.00;54.10;;;;;;5096485;28;20209;-60
2022/09/03 10:43:58;;;;;;;9.18;1.73;;;25.20;54.10;;;;;;5096566;28;20672;-62
2022/09/03 10:46:34;;;;;;;4.53;1.88;;;25.30;53.90;;;;;;5099299;28;20201;-60
2022/09/03 10:49:03;;;;;;;7.85;1.52;;;25.50;53.40;;;;;;5078010;28;20170;-59
2022/09/03 10:51:34;;;;;;;6.72;1.70;;;25.60;53.00;;;;;;5096046;27;20613;-60
2022/09/03 10:54:27;;;;;;;4.38;1.60;;;25.70;53.00;;;;;;5107924;28;20668;-60
2022/09/03 10:57:21;;;;;;;3.92;1.90;;;25.80;52.10;;;;;;5097258;28;20181;-61
2022/09/03 10:59:58;;;;;;;5.63;1.90;;;25.90;52.10;;;;;;5095864;28;20174;-59
2022/09/03 11:02:58;;;;;;;3.28;1.52;;;26.10;51.80;;;;;;5109626;28;20521;-61
2022/09/03 11:06:18;;;;;;;6.82;2.55;;;26.20;51.00;;;;;;5095449;28;20161;-61
2022/09/03 11:09:15;;;;;;;6.05;2.22;;;26.40;50.40;;;;;;5045028;28;20182;-61
2022/09/03 11:11:46;;;;;;;6.15;1.80;;;26.50;50.60;;;;;;5050111;28;20654;-64
2022/09/03 11:14:15;;;;;;;8.02;2.22;;;26.70;50.00;;;;;;5086223;27;20216;-64
2022/09/03 11:16:47;;;;;;;22.05;2.70;;;26.80;49.60;;;;;;5096573;27;20378;-64
2022/09/03 11:19:17;;;;;;;5.32;2.08;;;27.00;49.30;;;;;;5113955;28;20177;-64
2022/09/03 11:21:43;;;;;;;5.90;1.65;;;27.10;49.10;;;;;;5096180;28;20601;-64
2022/09/03 11:24:22;;;;;;;8.50;1.75;;;27.30;48.50;;;;;;5114352;28;20211;-64
2022/09/03 11:26:56;;;;;;;8.73;2.08;;;27.40;48.20;;;;;;5107405;28;20201;-64
2022/09/03 11:29:31;;;;;;;7.85;1.63;;;27.50;47.70;;;;;;5114989;28;20637;-64
2022/09/03 11:32:10;;;;;;;4.18;1.92;;;27.60;47.30;;;;;;5081688;28;20185;-65
2022/09/03 11:34:50;;;;;;;3.72;1.95;;;27.70;47.20;;;;;;5095389;28;20779;-64
2022/09/03 11:37:21;;;;;;;3.20;1.80;;;27.90;47.00;;;;;;5083095;28;20244;-64
2022/09/03 11:40:11;;;;;;;6.10;1.88;;;28.10;46.80;;;;;;5094174;28;20176;-64
2022/09/03 11:42:42;;;;;;;7.43;1.42;;;28.20;46.30;;;;;;5097094;28;20296;-64
2022/09/03 11:45:13;;;;;;;4.18;1.60;;;28.30;45.50;;;;;;5095518;28;20695;-65
2022/09/03 11:47:43;;;;;;;4.40;1.95;;;28.40;45.10;;;;;;5094380;28;20259;-65
2022/09/03 11:50:19;;;;;;;9.40;2.17;;;28.50;45.00;;;;;;5109836;28;20183;-65
2022/09/03 11:52:45;;;;;;;6.38;1.50;;;28.60;44.90;;;;;;5094727;28;20162;-65
2022/09/03 11:55:11;;;;;;;19.33;3.00;;;28.70;45.10;;;;;;5094069;28;20260;-65
2022/09/03 11:57:44;;;;;;;10.05;1.98;;;28.80;44.70;;;;;;5095868;28;20216;-65
2022/09/03 12:00:21;;;;;;;4.22;1.65;;;28.90;44.20;;;;;;5104041;28;20172;-64
2022/09/03 12:03:01;;;;;;;12.50;2.22;;;29.00;44.00;;;;;;5093780;28;20176;-64
2022/09/03 12:05:36;;;;;;;16.73;2.67;;;29.10;43.60;;;;;;5094182;28;20236;-65
2022/09/03 12:08:42;;;;;;;6.30;2.10;;;29.20;43.50;;;;;;5094359;28;20260;-64
2022/09/03 12:11:18;;;;;;;4.88;1.75;;;29.30;42.90;;;;;;5011900;28;20215;-64
2022/09/03 12:13:55;;;;;;;8.93;1.90;;;29.40;43.00;;;;;;5109386;28;20176;-64
2022/09/03 12:16:36;;;;;;;5.72;1.83;;;29.50;42.80;;;;;;5080125;28;20217;-64
2022/09/03 12:19:09;;;;;;;2.42;1.42;;;29.70;42.90;;;;;;5096730;27;20631;-64
2022/09/03 12:21:39;;;;;;;7.30;1.85;;;29.70;42.40;;;;;;5095321;28;20612;-63
2022/09/03 12:24:09;;;;;;;5.55;1.75;;;29.90;42.00;;;;;;5096074;28;20169;-63
2022/09/03 12:26:40;;;;;;;7.00;1.58;;;30.00;41.90;;;;;;5109241;28;20208;-63
2022/09/03 12:29:19;;;;;;;4.13;1.30;;;30.00;41.30;;;;;;5113120;28;20644;-63
2022/09/03 12:31:49;;;;;;;8.18;1.80;;;30.10;41.00;;;;;;5100818;28;20643;-62
2022/09/03 12:34:16;;;;;;;3.70;1.50;;;30.20;40.70;;;;;;5094099;28;20173;-63
2022/09/03 12:36:45;;;;;;;4.00;1.52;;;30.30;40.40;;;;;;5095932;28;20259;-64
2022/09/03 12:39:17;;;;;;;4.30;1.60;;;30.40;40.20;;;;;;5101426;28;20177;-64
2022/09/03 12:42:02;;;;;;;5.07;1.40;;;30.50;39.80;;;;;;5093421;28;20276;-64
2022/09/03 12:44:30;;;;;;;3.70;1.38;;;30.60;40.00;;;;;;5094133;28;20531;-62
2022/09/03 12:47:10;;;;;;;2.47;1.50;;;30.60;39.50;;;;;;5112354;28;20570;-62
2022/09/03 12:49:39;;;;;;;7.05;1.70;;;30.60;39.20;;;;;;5096351;28;20184;-63
2022/09/03 12:52:17;;;;;;;6.85;2.00;;;30.70;38.90;;;;;;5091095;28;20172;-63
2022/09/03 12:54:51;;;;;;;4.32;1.67;;;30.70;38.80;;;;;;5113820;28;20216;-60
2022/09/03 12:57:21;;;;;;;7.80;1.60;;;30.80;38.60;;;;;;5095394;28;20270;-59
2022/09/03 12:59:49;;;;;;;3.58;1.60;;;30.80;38.20;;;;;;5093466;28;20189;-60
2022/09/03 13:02:28;;;;;;;4.22;1.60;;;30.90;38.30;;;;;;5095162;28;20185;-62
2022/09/03 13:04:55;;;;;;;4.30;1.65;;;31.00;38.20;;;;;;5098013;28;20172;-61
2022/09/03 13:07:23;;;;;;;2.60;1.50;;;31.00;37.70;;;;;;5094891;28;20280;-63
2022/09/03 13:09:49;;;;;;;9.85;2.00;;;31.10;37.70;;;;;;5093001;28;20177;-63
2022/09/03 13:12:48;;;;;;;3.45;1.77;;;31.10;37.80;;;;;;5079198;28;20204;-63
2022/09/03 13:15:22;;;;;;;7.55;1.77;;;31.10;37.70;;;;;;5106947;28;20165;-63
2022/09/03 13:18:16;;;;;;;4.30;1.92;;;31.20;38.10;;;;;;5075717;28;20535;-63
2022/09/03 13:21:02;;;;;;;4.75;1.60;;;31.20;38.10;;;;;;5092478;28;20192;-64
2022/09/03 13:23:36;;;;;;;10.70;1.80;;;31.30;38.00;;;;;;5093429;28;20169;-63
2022/09/03 13:26:22;;;;;;;2.13;1.60;;;31.50;37.80;;;;;;5093043;28;20211;-63